Time;durP1;ratioP1;P1;durP2;ratioP2;P2;SDS_P1;SDS_P2;PMS_P1;PMS_P2;Temp;Humidity;BMP_temperature;BMP_pressure;BME280_temperature;BME280_humidity;BME280_pressure;Samples;Min_cycle;Max_cycle;Signal;HPM_P1;HPM_P2
2022/09/19 00:00:16;;;;;;;7.33;4.83;;;;;;;;;;4890756;29;20595;-44
2022/09/19 00:02:42;;;;;;;7.67;4.50;;;;;;;;;;4889304;29;20275;-44
2022/09/19 00:05:10;;;;;;;7.57;4.27;;;;;;;;;;4883258;29;21458;-44
2022/09/19 00:07:36;;;;;;;6.00;4.60;;;;;;;;;;4883545;29;20563;-44
2022/09/19 00:10:02;;;;;;;5.57;4.50;;;;;;;;;;4886869;29;20194;-44
2022/09/19 00:12:28;;;;;;;7.80;4.40;;;;;;;;;;4890971;29;20464;-44
2022/09/19 00:14:57;;;;;;;6.17;4.23;;;;;;;;;;4887404;29;21483;-44
2022/09/19 00:17:23;;;;;;;5.53;4.10;;;;;;;;;;4884693;29;20303;-43
2022/09/19 00:19:49;;;;;;;7.20;4.30;;;;;;;;;;4883298;29;20316;-44
2022/09/19 00:22:15;;;;;;;5.60;4.00;;;;;;;;;;4883020;29;20283;-44
2022/09/19 00:24:49;;;;;;;5.13;3.83;;;;;;;;;;4884524;29;20290;-44
2022/09/19 00:27:25;;;;;;;4.53;3.30;;;;;;;;;;4889046;29;20482;-44
2022/09/19 00:29:52;;;;;;;5.10;3.37;;;;;;;;;;4886046;29;20195;-44
2022/09/19 00:32:19;;;;;;;3.53;2.80;;;;;;;;;;4884251;29;20184;-44
2022/09/19 00:34:47;;;;;;;5.07;2.70;;;;;;;;;;4883659;29;20308;-44
2022/09/19 00:37:14;;;;;;;4.07;3.00;;;;;;;;;;4880760;29;20203;-44
2022/09/19 00:39:41;;;;;;;4.00;2.30;;;;;;;;;;4882206;29;20223;-44
2022/09/19 00:42:14;;;;;;;7.93;2.40;;;;;;;;;;4882633;29;20360;-44
2022/09/19 00:44:40;;;;;;;3.47;2.30;;;;;;;;;;4888204;29;21005;-42
2022/09/19 00:47:11;;;;;;;3.50;2.37;;;;;;;;;;4889809;29;20188;-44
2022/09/19 00:49:39;;;;;;;3.10;2.07;;;;;;;;;;4888766;29;20176;-42
2022/09/19 00:52:07;;;;;;;4.30;2.20;;;;;;;;;;4891909;29;20553;-44
2022/09/19 00:54:44;;;;;;;4.73;2.17;;;;;;;;;;4891724;29;20180;-44
2022/09/19 00:57:11;;;;;;;5.73;2.30;;;;;;;;;;4893827;29;20252;-44
2022/09/19 00:59:38;;;;;;;5.93;2.27;;;;;;;;;;4893097;29;20212;-44
2022/09/19 01:02:06;;;;;;;3.17;2.20;;;;;;;;;;4892142;29;20484;-44
2022/09/19 01:04:35;;;;;;;3.63;2.20;;;;;;;;;;4892262;28;20638;-43
2022/09/19 01:07:14;;;;;;;4.27;2.60;;;;;;;;;;4891981;29;20299;-44
2022/09/19 01:09:50;;;;;;;3.87;2.13;;;;;;;;;;4889432;29;20511;-44
2022/09/19 01:12:22;;;;;;;3.73;2.10;;;;;;;;;;4891067;29;20894;-44
2022/09/19 01:14:54;;;;;;;4.63;2.10;;;;;;;;;;4896471;28;20191;-44
2022/09/19 01:17:25;;;;;;;4.60;2.27;;;;;;;;;;4888187;29;21135;-44
2022/09/19 01:20:00;;;;;;;3.23;2.30;;;;;;;;;;4891882;29;20728;-44
2022/09/19 01:22:45;;;;;;;3.17;1.70;;;;;;;;;;4889923;29;20604;-44
2022/09/19 01:25:21;;;;;;;5.97;2.37;;;;;;;;;;4896732;29;20195;-44
2022/09/19 01:28:09;;;;;;;2.80;2.03;;;;;;;;;;4895574;29;20231;-44
2022/09/19 01:30:37;;;;;;;2.30;2.00;;;;;;;;;;4893651;29;20835;-45
2022/09/19 01:33:10;;;;;;;3.47;1.70;;;;;;;;;;4893177;29;20195;-44
2022/09/19 01:35:40;;;;;;;3.93;1.60;;;;;;;;;;4896676;29;20439;-44
2022/09/19 01:38:24;;;;;;;5.33;1.60;;;;;;;;;;4892869;29;20989;-44
2022/09/19 01:40:52;;;;;;;2.33;1.60;;;;;;;;;;4895728;29;20195;-44
2022/09/19 01:43:19;;;;;;;3.97;1.57;;;;;;;;;;4892907;29;20180;-45
2022/09/19 01:45:45;;;;;;;2.70;1.77;;;;;;;;;;4895587;29;20191;-44
2022/09/19 01:48:18;;;;;;;4.83;1.70;;;;;;;;;;4895543;29;20210;-44
2022/09/19 01:51:03;;;;;;;2.63;1.70;;;;;;;;;;4891626;29;20955;-44
2022/09/19 01:53:38;;;;;;;2.57;1.40;;;;;;;;;;4887176;29;21078;-44
2022/09/19 01:56:11;;;;;;;2.83;1.60;;;;;;;;;;4891721;29;20235;-44
2022/09/19 01:58:43;;;;;;;3.73;1.80;;;;;;;;;;4893730;29;20467;-44
2022/09/19 02:01:19;;;;;;;4.40;1.80;;;;;;;;;;4891944;29;20313;-44
2022/09/19 02:04:07;;;;;;;1.70;1.30;;;;;;;;;;4888350;29;20590;-44
2022/09/19 02:06:55;;;;;;;2.77;1.70;;;;;;;;;;4891957;29;20298;-44
2022/09/19 02:09:39;;;;;;;2.53;1.53;;;;;;;;;;4894182;29;20180;-44
2022/09/19 02:12:09;;;;;;;1.63;1.47;;;;;;;;;;4890790;29;20298;-44
2022/09/19 02:14:38;;;;;;;1.63;1.40;;;;;;;;;;4889349;29;20425;-44
2022/09/19 02:17:09;;;;;;;3.40;1.77;;;;;;;;;;4884758;28;20404;-44
2022/09/19 02:19:47;;;;;;;2.13;1.50;;;;;;;;;;4890927;29;20700;-44
2022/09/19 02:22:21;;;;;;;2.43;1.50;;;;;;;;;;4895490;29;20183;-43
2022/09/19 02:24:48;;;;;;;1.57;1.47;;;;;;;;;;4887540;29;20716;-44
2022/09/19 02:27:17;;;;;;;2.30;1.50;;;;;;;;;;4889247;29;21735;-45
2022/09/19 02:29:48;;;;;;;3.73;1.43;;;;;;;;;;4894773;29;20214;-44
2022/09/19 02:32:17;;;;;;;1.73;1.60;;;;;;;;;;4891927;29;20184;-43
2022/09/19 02:34:43;;;;;;;3.40;1.20;;;;;;;;;;4893495;29;20188;-42
2022/09/19 02:37:30;;;;;;;2.33;1.60;;;;;;;;;;4894438;29;20775;-42
2022/09/19 02:40:02;;;;;;;2.63;1.60;;;;;;;;;;4889509;29;20680;-44
2022/09/19 02:42:34;;;;;;;2.10;1.30;;;;;;;;;;4892067;29;20219;-44
2022/09/19 02:45:40;;;;;;;3.33;1.40;;;;;;;;;;4890059;29;20503;-43
2022/09/19 02:48:26;;;;;;;4.00;1.50;;;;;;;;;;4923213;28;20190;-44
2022/09/19 02:50:59;;;;;;;1.60;1.50;;;;;;;;;;4895317;28;20612;-43
2022/09/19 02:53:26;;;;;;;3.97;1.40;;;;;;;;;;4900577;28;20196;-44
2022/09/19 02:55:56;;;;;;;2.87;1.50;;;;;;;;;;4889900;29;20410;-45
2022/09/19 02:58:23;;;;;;;2.70;1.53;;;;;;;;;;4889702;29;20202;-44
2022/09/19 03:00:54;;;;;;;2.53;1.73;;;;;;;;;;4888540;29;20345;-43
2022/09/19 03:06:11;;;;;;;2.37;1.50;;;;;;;;;;4895393;29;20670;-43
2022/09/19 03:08:38;;;;;;;2.70;1.40;;;;;;;;;;4890038;29;20184;-43
2022/09/19 03:11:16;;;;;;;5.90;1.57;;;;;;;;;;4893168;29;20184;-43
2022/09/19 03:13:43;;;;;;;5.17;2.20;;;;;;;;;;4891804;29;20923;-43
2022/09/19 03:16:11;;;;;;;3.03;1.60;;;;;;;;;;4893523;29;20713;-43
2022/09/19 03:18:38;;;;;;;3.23;1.63;;;;;;;;;;4890745;29;20295;-43
2022/09/19 03:21:08;;;;;;;3.17;1.70;;;;;;;;;;4884542;29;20211;-43
2022/09/19 03:23:45;;;;;;;1.80;1.70;;;;;;;;;;4892056;29;20989;-43
2022/09/19 03:26:13;;;;;;;1.80;1.50;;;;;;;;;;4896417;29;20545;-43
2022/09/19 03:28:39;;;;;;;3.93;1.57;;;;;;;;;;4899676;28;21434;-43
2022/09/19 03:31:06;;;;;;;2.63;1.50;;;;;;;;;;4899811;29;20216;-43
2022/09/19 03:33:32;;;;;;;1.63;1.50;;;;;;;;;;4895813;29;20176;-43
2022/09/19 03:36:02;;;;;;;3.87;1.90;;;;;;;;;;4897079;29;20263;-43
2022/09/19 03:38:30;;;;;;;4.37;1.87;;;;;;;;;;4896101;29;20393;-43
2022/09/19 03:40:56;;;;;;;5.10;1.93;;;;;;;;;;4901712;29;20511;-43
2022/09/19 03:43:22;;;;;;;3.23;1.87;;;;;;;;;;4899457;29;20184;-43
2022/09/19 03:45:49;;;;;;;5.17;1.90;;;;;;;;;;4895883;29;20176;-42
2022/09/19 03:48:15;;;;;;;2.87;2.07;;;;;;;;;;4894172;29;20188;-43
2022/09/19 03:50:41;;;;;;;3.87;2.20;;;;;;;;;;4895072;29;20195;-43
2022/09/19 03:53:10;;;;;;;6.33;3.27;;;;;;;;;;4892345;29;20211;-43
2022/09/19 03:55:37;;;;;;;3.70;2.07;;;;;;;;;;4892967;29;20435;-43
2022/09/19 03:58:04;;;;;;;4.63;2.70;;;;;;;;;;4891863;29;20264;-43
2022/09/19 04:00:30;;;;;;;5.13;2.50;;;;;;;;;;4896158;29;20188;-43
2022/09/19 04:02:57;;;;;;;7.97;3.07;;;;;;;;;;4898720;28;20205;-43
2022/09/19 04:05:23;;;;;;;4.17;2.97;;;;;;;;;;4889614;29;20676;-43
2022/09/19 04:07:50;;;;;;;4.63;3.33;;;;;;;;;;4893135;29;20560;-43
2022/09/19 04:10:16;;;;;;;4.73;3.47;;;;;;;;;;4892592;28;20192;-43
2022/09/19 04:12:42;;;;;;;7.17;3.67;;;;;;;;;;4888919;29;20187;-43
2022/09/19 04:15:08;;;;;;;5.90;3.77;;;;;;;;;;4896982;29;20771;-43
2022/09/19 04:17:34;;;;;;;6.37;3.70;;;;;;;;;;4899982;29;20265;-43
2022/09/19 04:20:01;;;;;;;5.47;3.50;;;;;;;;;;4894983;29;20222;-43
2022/09/19 04:22:27;;;;;;;5.73;3.50;;;;;;;;;;4888784;29;20921;-43
2022/09/19 04:24:53;;;;;;;5.93;3.70;;;;;;;;;;4889720;29;20725;-43
2022/09/19 04:27:19;;;;;;;4.97;3.53;;;;;;;;;;4896891;29;20647;-43
2022/09/19 04:29:45;;;;;;;7.30;3.67;;;;;;;;;;4893778;29;20673;-43
2022/09/19 04:32:12;;;;;;;4.43;3.63;;;;;;;;;;4884247;29;20184;-43
2022/09/19 04:34:39;;;;;;;6.47;2.93;;;;;;;;;;4893961;29;20191;-43
2022/09/19 04:37:06;;;;;;;10.07;4.00;;;;;;;;;;4891294;29;20180;-43
2022/09/19 04:39:32;;;;;;;10.50;4.47;;;;;;;;;;4893456;29;20675;-43
2022/09/19 04:42:01;;;;;;;6.60;3.60;;;;;;;;;;4891298;28;20771;-43
2022/09/19 04:44:29;;;;;;;7.10;3.63;;;;;;;;;;4895282;29;20898;-43
2022/09/19 04:46:55;;;;;;;4.87;3.03;;;;;;;;;;4894967;29;20212;-43
2022/09/19 04:49:22;;;;;;;8.33;3.77;;;;;;;;;;4895532;29;20335;-43
2022/09/19 04:51:48;;;;;;;8.40;3.80;;;;;;;;;;4886270;29;20315;-43
2022/09/19 04:54:14;;;;;;;9.10;4.00;;;;;;;;;;4884498;29;20188;-43
2022/09/19 04:56:44;;;;;;;15.80;5.50;;;;;;;;;;4893333;29;20351;-43
2022/09/19 04:59:10;;;;;;;9.60;3.90;;;;;;;;;;4897559;28;20811;-43
2022/09/19 05:01:37;;;;;;;6.67;4.03;;;;;;;;;;4893922;28;20176;-43
2022/09/19 05:04:07;;;;;;;7.03;4.47;;;;;;;;;;4900520;29;20334;-43
2022/09/19 05:06:33;;;;;;;8.60;3.97;;;;;;;;;;4888757;29;20212;-42
2022/09/19 05:08:59;;;;;;;10.27;4.10;;;;;;;;;;4894710;29;20239;-43
2022/09/19 05:11:27;;;;;;;5.37;4.00;;;;;;;;;;4891456;29;20570;-43
2022/09/19 05:13:53;;;;;;;5.27;3.90;;;;;;;;;;4897293;29;20192;-41
2022/09/19 05:16:19;;;;;;;8.87;4.07;;;;;;;;;;4898977;29;20263;-43
2022/09/19 05:18:46;;;;;;;9.93;4.27;;;;;;;;;;4894077;29;20259;-43
2022/09/19 05:21:13;;;;;;;5.83;4.03;;;;;;;;;;4893649;29;20191;-43
2022/09/19 05:23:39;;;;;;;6.50;3.83;;;;;;;;;;4893222;29;20187;-43
2022/09/19 05:26:07;;;;;;;5.93;3.80;;;;;;;;;;4898126;28;20192;-43
2022/09/19 05:28:33;;;;;;;6.67;4.10;;;;;;;;;;4894687;29;20379;-43
2022/09/19 05:31:04;;;;;;;11.10;5.27;;;;;;;;;;4888551;29;20211;-43
2022/09/19 05:33:31;;;;;;;8.60;5.13;;;;;;;;;;4892465;29;20195;-43
2022/09/19 05:36:00;;;;;;;8.03;5.17;;;;;;;;;;4898888;29;20184;-42
2022/09/19 05:38:26;;;;;;;8.53;4.87;;;;;;;;;;4895705;29;20380;-43
2022/09/19 05:40:56;;;;;;;15.37;4.87;;;;;;;;;;4896442;29;20439;-43
2022/09/19 05:43:23;;;;;;;12.87;4.80;;;;;;;;;;4898494;29;20176;-43
2022/09/19 05:45:52;;;;;;;11.83;5.60;;;;;;;;;;4899333;29;20173;-43
2022/09/19 05:48:19;;;;;;;7.20;4.60;;;;;;;;;;4892768;29;20727;-43
2022/09/19 05:50:46;;;;;;;10.83;5.90;;;;;;;;;;4890503;29;20187;-43
2022/09/19 05:55:58;;;;;;;9.30;5.33;;;;;;;;;;4897938;29;20203;-43
2022/09/19 05:58:24;;;;;;;12.23;5.27;;;;;;;;;;4891646;29;20219;-43
2022/09/19 06:00:51;;;;;;;8.00;5.07;;;;;;;;;;4894968;29;20427;-43
2022/09/19 06:03:20;;;;;;;17.20;5.63;;;;;;;;;;4894816;29;20577;-43
2022/09/19 06:05:48;;;;;;;7.60;5.13;;;;;;;;;;4892407;28;20188;-43
2022/09/19 06:08:15;;;;;;;9.20;4.60;;;;;;;;;;4894708;29;20307;-43
2022/09/19 06:10:42;;;;;;;13.43;5.40;;;;;;;;;;4889252;29;20255;-43
2022/09/19 06:13:12;;;;;;;11.60;5.03;;;;;;;;;;4895379;29;20176;-44
2022/09/19 06:15:38;;;;;;;10.90;5.80;;;;;;;;;;4895493;29;20963;-43
2022/09/19 06:18:04;;;;;;;13.13;5.70;;;;;;;;;;4883770;29;20179;-44
2022/09/19 06:20:30;;;;;;;13.00;6.07;;;;;;;;;;4891165;29;20203;-44
2022/09/19 06:22:58;;;;;;;10.00;5.80;;;;;;;;;;4892618;29;20737;-44
2022/09/19 06:25:25;;;;;;;9.80;6.40;;;;;;;;;;4894455;29;20195;-43
2022/09/19 06:27:59;;;;;;;11.23;6.30;;;;;;;;;;4888958;28;20989;-44
2022/09/19 06:30:26;;;;;;;9.43;5.73;;;;;;;;;;4887758;29;20656;-44
2022/09/19 06:32:52;;;;;;;10.83;6.20;;;;;;;;;;4891009;28;20195;-44
2022/09/19 06:35:19;;;;;;;11.00;5.83;;;;;;;;;;4891465;29;20183;-44
2022/09/19 06:37:45;;;;;;;12.33;6.50;;;;;;;;;;4890326;29;20222;-44
2022/09/19 06:40:12;;;;;;;14.03;6.63;;;;;;;;;;4888232;29;20704;-44
2022/09/19 06:42:38;;;;;;;13.93;6.63;;;;;;;;;;4894630;29;20418;-44
2022/09/19 06:45:07;;;;;;;11.13;7.37;;;;;;;;;;4883710;29;20192;-44
2022/09/19 06:47:35;;;;;;;12.10;7.40;;;;;;;;;;4892304;29;20270;-44
2022/09/19 06:50:01;;;;;;;13.13;7.13;;;;;;;;;;4893230;29;20231;-44
2022/09/19 06:52:28;;;;;;;14.63;8.10;;;;;;;;;;4885651;29;21209;-44
2022/09/19 06:54:54;;;;;;;13.67;6.83;;;;;;;;;;4893560;28;20857;-43
2022/09/19 06:57:21;;;;;;;9.20;6.50;;;;;;;;;;4891857;29;20419;-43
2022/09/19 06:59:47;;;;;;;15.53;6.87;;;;;;;;;;4893739;29;20302;-43
2022/09/19 07:02:13;;;;;;;12.40;7.33;;;;;;;;;;4894970;29;20187;-43
2022/09/19 07:04:40;;;;;;;14.63;6.80;;;;;;;;;;4894996;29;20586;-43
2022/09/19 07:07:06;;;;;;;13.13;7.00;;;;;;;;;;4889531;29;20187;-43
2022/09/19 07:09:32;;;;;;;11.07;6.20;;;;;;;;;;4897222;29;20514;-44
2022/09/19 07:12:01;;;;;;;8.63;6.20;;;;;;;;;;4899258;28;20709;-43
2022/09/19 07:14:28;;;;;;;9.70;6.50;;;;;;;;;;4893933;28;20837;-44
2022/09/19 07:16:54;;;;;;;11.60;6.70;;;;;;;;;;4890452;28;20212;-44
2022/09/19 07:19:20;;;;;;;10.90;6.00;;;;;;;;;;4908213;28;20275;-44
2022/09/19 07:21:47;;;;;;;11.20;6.70;;;;;;;;;;4894344;29;20768;-44
2022/09/19 07:24:13;;;;;;;9.63;5.77;;;;;;;;;;4896784;29;20258;-44
2022/09/19 07:26:39;;;;;;;7.83;4.20;;;;;;;;;;4893203;29;21088;-44
2022/09/19 07:29:05;;;;;;;7.60;4.73;;;;;;;;;;4894152;29;20188;-44
2022/09/19 07:31:32;;;;;;;5.83;3.77;;;;;;;;;;4896758;28;20337;-44
2022/09/19 07:33:58;;;;;;;5.53;3.50;;;;;;;;;;4898992;29;20275;-44
2022/09/19 07:36:24;;;;;;;5.27;3.60;;;;;;;;;;4899182;29;20192;-44
2022/09/19 07:38:50;;;;;;;9.37;4.93;;;;;;;;;;4894675;29;20844;-44
2022/09/19 07:41:17;;;;;;;7.90;4.07;;;;;;;;;;4897417;29;20394;-44
2022/09/19 07:43:43;;;;;;;7.90;3.60;;;;;;;;;;4898321;29;20467;-44
2022/09/19 07:46:11;;;;;;;6.73;3.27;;;;;;;;;;4899493;29;20333;-44
2022/09/19 07:48:38;;;;;;;6.93;3.50;;;;;;;;;;4896608;29;20186;-43
2022/09/19 07:51:05;;;;;;;6.20;3.20;;;;;;;;;;4894450;29;20223;-43
2022/09/19 07:53:31;;;;;;;5.97;3.43;;;;;;;;;;4896139;29;20238;-44
2022/09/19 07:55:57;;;;;;;7.13;2.87;;;;;;;;;;4896867;29;20319;-43
2022/09/19 07:58:25;;;;;;;5.23;2.73;;;;;;;;;;4898724;29;20220;-44
2022/09/19 08:00:51;;;;;;;5.73;2.93;;;;;;;;;;4892900;29;20231;-44
2022/09/19 08:03:18;;;;;;;3.23;2.17;;;;;;;;;;4891995;29;20330;-43
2022/09/19 08:05:46;;;;;;;2.50;1.80;;;;;;;;;;4896159;29;20302;-43
2022/09/19 08:08:13;;;;;;;4.47;1.97;;;;;;;;;;4893153;29;20509;-44
2022/09/19 08:10:40;;;;;;;2.50;1.60;;;;;;;;;;4896923;28;20251;-44
2022/09/19 08:13:06;;;;;;;4.63;1.97;;;;;;;;;;4897809;28;20740;-44
2022/09/19 08:15:33;;;;;;;2.97;1.77;;;;;;;;;;4896093;29;20867;-44
2022/09/19 08:18:19;;;;;;;5.03;1.73;;;;;;;;;;4895843;29;20311;-44
2022/09/19 08:20:46;;;;;;;3.87;1.43;;;;;;;;;;4899617;29;20180;-44
2022/09/19 08:23:13;;;;;;;7.03;1.67;;;;;;;;;;4898026;29;20181;-43
2022/09/19 08:25:41;;;;;;;2.27;1.23;;;;;;;;;;4894999;29;20202;-44
2022/09/19 08:28:07;;;;;;;4.53;1.47;;;;;;;;;;4892405;28;20283;-43
2022/09/19 08:30:35;;;;;;;5.57;1.30;;;;;;;;;;4890038;29;20735;-44
2022/09/19 08:33:02;;;;;;;2.77;1.33;;;;;;;;;;4900556;28;20721;-44
2022/09/19 08:35:29;;;;;;;2.43;1.27;;;;;;;;;;4885472;29;20192;-44
2022/09/19 08:37:56;;;;;;;3.50;1.40;;;;;;;;;;4888125;29;20180;-44
2022/09/19 08:40:27;;;;;;;5.20;1.50;;;;;;;;;;4897995;29;20411;-43
2022/09/19 08:43:02;;;;;;;1.53;1.10;;;;;;;;;;4894987;28;20367;-44
2022/09/19 08:45:37;;;;;;;4.53;1.43;;;;;;;;;;4895774;29;21239;-44
2022/09/19 08:48:06;;;;;;;3.13;1.40;;;;;;;;;;4901614;28;20929;-44
2022/09/19 08:50:33;;;;;;;5.47;1.40;;;;;;;;;;4896139;29;20188;-44
2022/09/19 08:53:01;;;;;;;2.87;1.30;;;;;;;;;;4895046;29;20518;-44
2022/09/19 08:55:29;;;;;;;3.20;1.43;;;;;;;;;;4901043;29;20192;-44
2022/09/19 08:58:04;;;;;;;3.00;1.30;;;;;;;;;;4898941;29;20319;-44
2022/09/19 09:00:36;;;;;;;3.50;1.43;;;;;;;;;;4896973;29;20215;-44
2022/09/19 09:03:06;;;;;;;2.87;1.30;;;;;;;;;;4897436;29;20184;-44
2022/09/19 09:05:33;;;;;;;3.43;1.50;;;;;;;;;;4893255;29;20291;-44
2022/09/19 09:08:05;;;;;;;2.67;1.30;;;;;;;;;;4900633;28;20283;-44
2022/09/19 09:10:50;;;;;;;2.70;1.40;;;;;;;;;;4895778;29;20299;-44
2022/09/19 09:13:34;;;;;;;3.50;1.30;;;;;;;;;;4895518;28;20183;-44
2022/09/19 09:16:00;;;;;;;3.57;1.50;;;;;;;;;;4911468;28;20180;-44
2022/09/19 09:18:42;;;;;;;2.47;1.50;;;;;;;;;;4895344;29;20582;-44
2022/09/19 09:21:27;;;;;;;4.80;1.30;;;;;;;;;;4893678;29;20637;-44
2022/09/19 09:23:58;;;;;;;3.40;1.63;;;;;;;;;;4896428;29;20706;-44
2022/09/19 09:26:29;;;;;;;3.03;1.70;;;;;;;;;;4911819;28;20351;-44
2022/09/19 09:29:03;;;;;;;5.00;1.70;;;;;;;;;;4896198;29;21096;-44
2022/09/19 09:31:33;;;;;;;3.07;1.43;;;;;;;;;;4887506;28;20291;-45
2022/09/19 09:34:03;;;;;;;4.13;1.67;;;;;;;;;;4889216;29;20192;-44
2022/09/19 09:36:34;;;;;;;6.17;2.00;;;;;;;;;;4897313;29;20187;-44
2022/09/19 09:39:02;;;;;;;2.90;1.87;;;;;;;;;;4899185;29;20351;-44
2022/09/19 09:44:13;;;;;;;3.77;1.70;;;;;;;;;;4897175;29;20195;-45
2022/09/19 09:46:58;;;;;;;5.83;1.60;;;;;;;;;;4891502;29;20823;-44
2022/09/19 09:49:29;;;;;;;4.70;1.40;;;;;;;;;;4882970;29;20476;-43
2022/09/19 09:52:03;;;;;;;4.23;2.03;;;;;;;;;;4884594;29;20282;-44
2022/09/19 09:58:05;;;;;;;3.33;1.60;;;;;;;;;;4882627;29;20613;-44
2022/09/19 10:03:49;;;;;;;3.10;1.90;;;;;;;;;;4849271;29;20708;-44
2022/09/19 10:06:33;;;;;;;4.90;2.17;;;;;;;;;;4879898;29;20273;-44
2022/09/19 10:09:12;;;;;;;4.90;1.80;;;;;;;;;;4880229;29;20263;-44
2022/09/19 10:11:47;;;;;;;4.23;1.87;;;;;;;;;;4894373;29;20273;-43
2022/09/19 10:14:21;;;;;;;5.33;2.10;;;;;;;;;;4889167;29;20326;-44
2022/09/19 10:16:52;;;;;;;3.53;1.77;;;;;;;;;;4890751;29;20333;-44
2022/09/19 10:19:26;;;;;;;8.97;2.47;;;;;;;;;;4893414;29;20806;-43
2022/09/19 10:21:56;;;;;;;3.97;2.00;;;;;;;;;;4896064;29;20693;-44
2022/09/19 10:24:41;;;;;;;4.27;1.90;;;;;;;;;;4890823;29;20331;-44
2022/09/19 10:27:26;;;;;;;4.77;1.83;;;;;;;;;;4874636;29;20773;-45
2022/09/19 10:30:04;;;;;;;5.33;1.80;;;;;;;;;;4880689;29;20191;-44
2022/09/19 10:32:37;;;;;;;5.17;2.00;;;;;;;;;;4884557;29;20191;-44
2022/09/19 10:35:25;;;;;;;5.37;1.70;;;;;;;;;;4882981;28;20714;-45
2022/09/19 10:38:13;;;;;;;4.37;2.00;;;;;;;;;;4881364;29;20198;-44
2022/09/19 10:40:51;;;;;;;3.27;1.80;;;;;;;;;;4885545;29;20862;-44
2022/09/19 10:43:22;;;;;;;5.00;2.40;;;;;;;;;;4889131;28;20180;-44
2022/09/19 10:45:48;;;;;;;3.27;1.97;;;;;;;;;;4898100;28;20180;-44
2022/09/19 10:48:32;;;;;;;6.47;1.90;;;;;;;;;;4894937;28;20191;-44
2022/09/19 10:50:59;;;;;;;3.33;1.97;;;;;;;;;;4894486;29;20331;-44
2022/09/19 10:53:30;;;;;;;8.63;2.30;;;;;;;;;;4894222;29;20188;-44
2022/09/19 10:55:59;;;;;;;6.07;2.20;;;;;;;;;;4897281;29;20549;-44
2022/09/19 10:58:29;;;;;;;4.47;2.00;;;;;;;;;;4899877;29;20238;-43
2022/09/19 11:01:01;;;;;;;3.97;1.97;;;;;;;;;;4900516;29;20338;-44
2022/09/19 11:03:39;;;;;;;5.57;1.80;;;;;;;;;;4909431;28;20488;-43
2022/09/19 11:06:05;;;;;;;3.93;1.80;;;;;;;;;;4899339;29;20179;-44
2022/09/19 11:08:37;;;;;;;2.47;1.70;;;;;;;;;;4898412;28;20188;-44
2022/09/19 11:11:19;;;;;;;7.27;2.10;;;;;;;;;;4897753;29;20206;-44
2022/09/19 11:13:45;;;;;;;4.53;1.63;;;;;;;;;;4898869;28;20171;-44
2022/09/19 11:16:26;;;;;;;3.60;1.70;;;;;;;;;;4897418;28;20554;-44
2022/09/19 11:19:02;;;;;;;3.20;1.57;;;;;;;;;;4894816;29;20469;-42
2022/09/19 11:21:47;;;;;;;5.17;1.60;;;;;;;;;;4895268;29;20285;-44
2022/09/19 11:24:13;;;;;;;6.10;2.00;;;;;;;;;;4896618;29;20216;-44
2022/09/19 11:26:53;;;;;;;4.13;1.60;;;;;;;;;;4894696;29;20527;-44
2022/09/19 11:29:20;;;;;;;8.33;1.80;;;;;;;;;;4890186;29;20594;-44
2022/09/19 11:31:47;;;;;;;3.47;1.60;;;;;;;;;;4892962;29;20279;-44
2022/09/19 11:34:27;;;;;;;3.63;1.67;;;;;;;;;;4898199;29;20203;-44
2022/09/19 11:36:58;;;;;;;2.93;1.60;;;;;;;;;;4897786;29;20370;-44
2022/09/19 11:39:31;;;;;;;4.30;1.70;;;;;;;;;;4893382;29;20749;-44
2022/09/19 11:42:15;;;;;;;3.53;1.67;;;;;;;;;;4889355;29;20785;-44
2022/09/19 11:44:48;;;;;;;3.47;1.70;;;;;;;;;;4894272;29;20208;-44
2022/09/19 11:47:21;;;;;;;5.63;1.83;;;;;;;;;;4896952;29;21185;-44
2022/09/19 11:49:51;;;;;;;2.87;1.80;;;;;;;;;;4901684;29;20196;-44
2022/09/19 11:52:25;;;;;;;4.00;1.90;;;;;;;;;;4901979;29;20489;-44
2022/09/19 11:54:58;;;;;;;4.13;1.67;;;;;;;;;;4896188;29;20526;-44
2022/09/19 11:57:25;;;;;;;4.63;1.50;;;;;;;;;;4897610;29;20204;-44
2022/09/19 12:00:00;;;;;;;2.40;1.50;;;;;;;;;;4898928;29;20387;-44
2022/09/19 12:02:36;;;;;;;3.37;1.60;;;;;;;;;;4899969;29;20671;-44
2022/09/19 12:05:03;;;;;;;6.33;1.73;;;;;;;;;;4900138;29;20613;-44
2022/09/19 12:07:48;;;;;;;4.17;2.00;;;;;;;;;;4898833;28;20837;-44
2022/09/19 12:10:20;;;;;;;8.17;1.90;;;;;;;;;;4896645;29;20279;-44
2022/09/19 12:12:53;;;;;;;2.80;1.80;;;;;;;;;;4899971;29;20219;-44
2022/09/19 12:15:24;;;;;;;3.53;1.80;;;;;;;;;;4897680;29;20938;-43
2022/09/19 12:17:56;;;;;;;4.80;1.83;;;;;;;;;;4900082;29;20401;-44
2022/09/19 12:20:25;;;;;;;3.10;1.60;;;;;;;;;;4899758;29;20725;-44
2022/09/19 12:22:54;;;;;;;3.43;1.50;;;;;;;;;;4897193;29;20603;-44
2022/09/19 12:25:25;;;;;;;3.03;1.60;;;;;;;;;;4900473;29;20188;-44
2022/09/19 12:27:51;;;;;;;3.33;1.53;;;;;;;;;;4900226;29;20569;-44
2022/09/19 12:30:19;;;;;;;7.33;1.83;;;;;;;;;;4903359;29;20194;-44
2022/09/19 12:33:06;;;;;;;4.93;1.60;;;;;;;;;;4901320;29;20337;-44
2022/09/19 12:35:53;;;;;;;3.77;1.70;;;;;;;;;;4897730;29;20178;-43
2022/09/19 12:38:39;;;;;;;4.70;1.93;;;;;;;;;;4897821;29;20300;-44
2022/09/19 12:41:24;;;;;;;4.10;1.77;;;;;;;;;;4901755;29;20614;-44
2022/09/19 12:43:50;;;;;;;5.87;1.90;;;;;;;;;;4902925;29;20188;-44
2022/09/19 12:46:29;;;;;;;4.00;1.70;;;;;;;;;;4898318;29;20180;-44
2022/09/19 12:49:03;;;;;;;6.50;1.60;;;;;;;;;;4895813;29;20513;-44
2022/09/19 12:51:42;;;;;;;4.93;1.83;;;;;;;;;;4896785;28;20637;-44
2022/09/19 12:54:13;;;;;;;6.80;1.90;;;;;;;;;;4898174;29;20183;-44
2022/09/19 12:56:43;;;;;;;2.83;1.60;;;;;;;;;;4899707;29;20632;-44
2022/09/19 12:59:33;;;;;;;5.10;1.70;;;;;;;;;;4894262;29;20211;-44
2022/09/19 13:02:28;;;;;;;5.43;1.67;;;;;;;;;;4894804;28;20171;-44
2022/09/19 13:05:22;;;;;;;2.67;1.50;;;;;;;;;;4904517;28;20626;-44
2022/09/19 13:07:53;;;;;;;4.00;1.70;;;;;;;;;;4897218;29;20184;-44
2022/09/19 13:10:23;;;;;;;4.20;1.80;;;;;;;;;;4899503;29;20295;-43
2022/09/19 13:12:57;;;;;;;10.47;2.77;;;;;;;;;;4900125;29;20184;-45
2022/09/19 13:15:38;;;;;;;6.80;1.87;;;;;;;;;;4899567;29;20188;-44
2022/09/19 13:23:36;;;;;;;6.10;1.90;;;;;;;;;;4897348;29;20214;-44
2022/09/19 13:26:19;;;;;;;3.57;1.70;;;;;;;;;;4897123;29;20214;-44
2022/09/19 13:28:49;;;;;;;4.80;1.77;;;;;;;;;;4897404;29;20196;-44
2022/09/19 13:31:17;;;;;;;3.90;2.03;;;;;;;;;;4892360;29;20586;-44
2022/09/19 13:33:44;;;;;;;2.77;1.50;;;;;;;;;;4891732;29;20202;-44
2022/09/19 13:36:11;;;;;;;3.50;1.50;;;;;;;;;;4879918;29;20184;-45
2022/09/19 13:38:38;;;;;;;3.27;1.50;;;;;;;;;;4882231;28;20211;-44
2022/09/19 13:41:09;;;;;;;3.27;1.40;;;;;;;;;;4883335;29;20181;-43
2022/09/19 13:43:42;;;;;;;2.87;1.60;;;;;;;;;;4885302;29;20247;-44
2022/09/19 13:46:15;;;;;;;3.03;1.50;;;;;;;;;;4887939;29;20556;-43
2022/09/19 13:48:53;;;;;;;3.23;1.33;;;;;;;;;;4887701;29;20191;-42
2022/09/19 13:51:19;;;;;;;8.03;1.60;;;;;;;;;;4889422;29;20621;-44
2022/09/19 13:53:46;;;;;;;2.37;1.30;;;;;;;;;;4893084;29;20499;-44
2022/09/19 13:56:24;;;;;;;4.67;1.50;;;;;;;;;;4896102;29;20189;-43
2022/09/19 13:59:10;;;;;;;2.03;1.30;;;;;;;;;;4892028;29;20200;-44
2022/09/19 14:01:41;;;;;;;2.00;1.43;;;;;;;;;;4891188;29;20183;-44
2022/09/19 14:07:02;;;;;;;6.83;1.80;;;;;;;;;;4886566;29;20179;-44
2022/09/19 14:09:31;;;;;;;3.73;1.60;;;;;;;;;;4885122;28;21179;-44
2022/09/19 14:11:58;;;;;;;3.40;1.60;;;;;;;;;;4884140;29;20444;-44
2022/09/19 14:14:40;;;;;;;4.00;1.43;;;;;;;;;;4886819;29;20589;-44
2022/09/19 14:17:18;;;;;;;24.83;3.33;;;;;;;;;;4887395;29;20574;-44
2022/09/19 14:19:45;;;;;;;5.27;2.20;;;;;;;;;;4881154;29;20738;-44
2022/09/19 14:22:34;;;;;;;9.77;2.00;;;;;;;;;;4882783;29;20376;-44
2022/09/19 14:25:21;;;;;;;3.47;1.90;;;;;;;;;;4888459;29;20460;-43
2022/09/19 14:27:53;;;;;;;6.03;2.00;;;;;;;;;;4884137;29;20639;-44
2022/09/19 14:30:37;;;;;;;3.30;1.50;;;;;;;;;;4883793;29;20508;-43
2022/09/19 14:33:13;;;;;;;4.53;1.80;;;;;;;;;;4877437;29;20191;-44
2022/09/19 14:35:48;;;;;;;2.37;1.57;;;;;;;;;;4880450;29;20478;-43
2022/09/19 14:38:28;;;;;;;5.13;1.70;;;;;;;;;;4882882;29;20244;-44
2022/09/19 14:41:05;;;;;;;2.87;1.73;;;;;;;;;;4883867;29;20569;-44
2022/09/19 14:43:50;;;;;;;13.67;2.83;;;;;;;;;;4890851;29;20234;-43
2022/09/19 14:46:24;;;;;;;4.07;1.90;;;;;;;;;;4892428;29;20641;-44
2022/09/19 14:48:56;;;;;;;6.50;2.17;;;;;;;;;;4889064;29;22515;-44
2022/09/19 14:51:42;;;;;;;7.63;2.00;;;;;;;;;;4889840;28;20511;-43
2022/09/19 14:54:11;;;;;;;2.57;1.50;;;;;;;;;;4886606;29;20447;-43
2022/09/19 14:56:37;;;;;;;6.00;2.27;;;;;;;;;;4884002;29;20302;-42
2022/09/19 14:59:03;;;;;;;3.43;1.60;;;;;;;;;;4883146;29;20205;-44
2022/09/19 15:01:32;;;;;;;6.03;1.97;;;;;;;;;;4880770;29;20195;-42
2022/09/19 15:04:08;;;;;;;4.90;1.83;;;;;;;;;;4878241;28;20211;-43
2022/09/19 15:06:55;;;;;;;4.10;1.70;;;;;;;;;;4882258;29;20188;-42
2022/09/19 15:09:29;;;;;;;4.93;1.87;;;;;;;;;;4880536;29;20196;-42
2022/09/19 15:11:56;;;;;;;5.00;1.90;;;;;;;;;;4881726;29;20281;-42
2022/09/19 15:14:29;;;;;;;5.10;1.87;;;;;;;;;;4885972;29;20884;-42
2022/09/19 15:17:11;;;;;;;4.80;2.23;;;;;;;;;;4888323;29;20728;-42
2022/09/19 15:19:42;;;;;;;20.77;3.50;;;;;;;;;;4878833;29;20374;-42
2022/09/19 15:22:22;;;;;;;4.37;2.00;;;;;;;;;;4881471;29;20216;-43
2022/09/19 15:24:50;;;;;;;4.90;2.07;;;;;;;;;;4886579;29;20383;-43
2022/09/19 15:27:18;;;;;;;4.53;2.00;;;;;;;;;;4889153;29;20289;-42